Nicole Leigh Reinauer — WCZ5696 — position and weather

sailwx.info

Track history (hours):
 
Tides and Currents Weather Stations Pressure Air Temp Water Temp Dewpoint Dewpoint Depression Visibility Wind Speed Wind Dir Waves Ship Positions

Nicole Leigh Reinauer

Owner: H A REINAUER INC, STATEN ISLAND, NY. More information available from US FCC via Universal Licensing System and Coast Guard Vessel Documentation Center.

Last reported at 2017-Oct-17 01:30 UTC. Time now 2017-Oct-17 01:51 UTC.
Position N 40°40' W 074°04'.

Length 167 m; draft 6.4 m.

Type: Tanker. MMSI: 366774330.

Date/timePositionNaut miles runAvg speedWind from/ knotsBaromVisibWave heightAir tempDewpointWater temp
2017-Oct-17 01:30N 40°40' W 074°04'0 0.0
2017-Oct-17 01:00N 40°40' W 074°04'0 0.0
2017-Oct-17 00:30N 40°40' W 074°04'0 0.0
2017-Oct-17 00:00N 40°40' W 074°04'0 0.0
2017-Oct-16 23:30N 40°40' W 074°04'0 0.1
2017-Oct-16 23:00N 40°40' W 074°04'0 0.5
2017-Oct-16 22:30N 40°40' W 074°04'5 9.0
2017-Oct-16 22:00N 40°39' W 074°10'0 0.6
2017-Oct-16 21:30N 40°39' W 074°10'0 0.0
2017-Oct-16 21:00N 40°39' W 074°10'0 0.0
2017-Oct-16 20:30N 40°39' W 074°10'0 0.0
2017-Oct-16 20:00N 40°39' W 074°10'0 0.0
2017-Oct-16 19:30N 40°39' W 074°10'0 0.0
2017-Oct-16 19:00N 40°39' W 074°10'0 0.0
2017-Oct-16 18:30N 40°39' W 074°10'0 0.0
2017-Oct-16 18:00N 40°39' W 074°10'0 0.0
2017-Oct-16 17:30N 40°39' W 074°10'0 0.0
2017-Oct-16 17:00N 40°39' W 074°10'0 0.0
2017-Oct-16 16:30N 40°39' W 074°10'0 0.6
2017-Oct-16 16:00N 40°39' W 074°10'5 9.7
2017-Oct-16 15:30N 40°39' W 074°03'1 1.3
2017-Oct-16 15:00N 40°40' W 074°04'0 0.0
2017-Oct-16 14:00N 40°40' W 074°04'0 0.3
2017-Oct-16 13:30N 40°40' W 074°04'3 5.5
2017-Oct-16 13:00N 40°41' W 074°01'611.2
2017-Oct-16 12:30N 40°46' W 073°57'5 9.2
2017-Oct-16 12:00N 40°48' W 073°51'5 9.2
2017-Oct-16 11:30N 40°50' W 073°46'4811.4
2017-Oct-16 07:18N 41°06' W 072°46'310.9
2017-Oct-16 07:00N 41°07' W 072°42'510.6
2017-Oct-16 06:30N 41°08' W 072°35'510.3
2017-Oct-16 06:00N 41°09' W 072°28'5 9.7
2017-Oct-16 05:30N 41°11' W 072°22'4 8.7
2017-Oct-16 05:00N 41°12' W 072°17'4 8.6
2017-Oct-16 04:30N 41°14' W 072°11'6 8.6
2017-Oct-16 03:49N 41°14' W 072°04'5610.0
2017-Oct-15 22:11N 41°30' W 070°51'42 8.7
2017-Oct-15 17:20N 42°09' W 070°31'410.6
2017-Oct-15 17:00N 42°12' W 070°34'611.4
2017-Oct-15 16:30N 42°17' W 070°39'611.6
2017-Oct-15 16:00N 42°20' W 070°45'511.0
2017-Oct-15 15:30N 42°23' W 070°51'611.3
2017-Oct-15 15:00N 42°20' W 070°58'4 4.1
2017-Oct-15 14:00N 42°23' W 071°01'1 1.2
2017-Oct-15 13:30N 42°24' W 071°01'0 0.0
2017-Oct-15 04:46N 42°24' W 071°01'0 0.0
2017-Oct-15 04:30N 42°24' W 071°01'0 0.0
2017-Oct-14 18:59N 42°24' W 071°01'2 0.6
2017-Oct-14 16:20N 42°23' W 071°03'2 0.1
2017-Oct-14 01:56N 42°24' W 071°01'1 1.4
2017-Oct-14 01:30N 42°23' W 071°01'2 3.0
2017-Oct-14 00:59N 42°22' W 071°03'4 8.5
2017-Oct-14 00:29N 42°20' W 070°58'510.3
2017-Oct-14 00:00N 42°23' W 070°53'610.7
2017-Oct-13 23:25N 42°20' W 070°45'511.6
2017-Oct-13 23:01N 42°17' W 070°40'611.6
2017-Oct-13 22:30N 42°13' W 070°35'86 4.6
2017-Oct-13 03:44N 41°14' W 071°59'412.1
2017-Oct-13 03:24N 41°14' W 072°04'512.5
2017-Oct-13 03:01N 41°14' W 072°10'612.9
2017-Oct-13 02:31N 41°12' W 072°19'612.9
2017-Oct-13 02:01N 41°10' W 072°27'612.4
2017-Oct-13 01:31N 41°08' W 072°35'612.1
2017-Oct-13 01:01N 41°07' W 072°43'4711.4
2017-Oct-12 20:51N 40°53' W 073°43'411.1
2017-Oct-12 20:30N 40°50' W 073°46'5 9.0
2017-Oct-12 20:00N 40°48' W 073°51'5 9.9
2017-Oct-12 19:30N 40°46' W 073°57'511.0
2017-Oct-12 19:00N 40°41' W 074°01'4 8.0
2017-Oct-12 18:30N 40°39' W 074°05'1 0.2
2017-Oct-12 12:55N 40°39' W 074°07'0 0.0
2017-Oct-12 11:13N 40°39' W 074°07'0 0.1
2017-Oct-12 05:43N 40°39' W 074°06'1 5.2
2017-Oct-12 05:30N 40°39' W 074°04'1 1.5
2017-Oct-12 04:34N 40°38' W 074°03'0 0.2
2017-Oct-12 04:21N 40°38' W 074°03'0 0.1
2017-Oct-12 04:00N 40°38' W 074°03'0 0.5
2017-Oct-12 03:25N 40°39' W 074°03'2 4.6
2017-Oct-12 03:00N 40°39' W 074°05'4 8.7
2017-Oct-12 02:29N 40°39' W 074°11'4 8.2
2017-Oct-12 02:00N 40°35' W 074°13'2 0.1
2017-Oct-10 23:59N 40°33' W 074°14'0 0.0
2017-Oct-10 23:30N 40°33' W 074°14'2 4.6
2017-Oct-10 22:57N 40°35' W 074°12'4 8.6
2017-Oct-10 22:30N 40°39' W 074°10'510.0
2017-Oct-10 22:01N 40°39' W 074°03'713.6
2017-Oct-10 21:31N 40°46' W 074°01'713.3
2017-Oct-10 21:00N 40°52' W 073°56'6 0.2
2017-Oct-09 21:35N 40°57' W 073°54'1 9.7
2017-Oct-09 21:30N 40°57' W 073°54'5 9.7
2017-Oct-09 21:00N 40°52' W 073°56'5 9.7
2017-Oct-09 20:30N 40°48' W 073°59'510.2
2017-Oct-09 20:00N 40°43' W 074°01'5 9.2
2017-Oct-09 19:31N 40°39' W 074°05'5 9.6
2017-Oct-09 19:01N 40°39' W 074°11'3 5.8
2017-Oct-09 18:30N 40°36' W 074°12'3 5.5
2017-Oct-09 18:00N 40°33' W 074°14'1 0.0
2017-Oct-08 03:01N 40°33' W 074°14'0 0.0
2017-Oct-08 03:00N 40°33' W 074°14'1 2.1
2017-Oct-08 02:29N 40°34' W 074°13'4 8.1
2017-Oct-08 02:00N 40°37' W 074°12'4 7.5
2017-Oct-08 01:30N 40°39' W 074°08'4 7.7
2017-Oct-08 01:00N 40°40' W 074°03'0 0.0
2017-Oct-08 00:29N 40°40' W 074°03'0 0.0
2017-Oct-07 23:59N 40°40' W 074°03'0 0.0
2017-Oct-07 23:29N 40°40' W 074°03'0 0.0
2017-Oct-07 22:59N 40°40' W 074°03'0 0.1
2017-Oct-07 22:29N 40°40' W 074°03'0 0.2
2017-Oct-07 21:59N 40°40' W 074°03'0 0.2
2017-Oct-07 21:29N 40°40' W 074°03'0 0.1
2017-Oct-07 20:59N 40°39' W 074°03'0 0.1
2017-Oct-07 20:29N 40°39' W 074°03'0 0.0
2017-Oct-07 19:59N 40°39' W 074°03'0 0.0
2017-Oct-07 19:29N 40°39' W 074°03'0 0.1
2017-Oct-07 18:59N 40°39' W 074°03'0 0.0
2017-Oct-07 18:29N 40°39' W 074°03'0 0.1
2017-Oct-07 17:59N 40°39' W 074°03'0 0.0
2017-Oct-07 17:29N 40°39' W 074°03'0 0.0
2017-Oct-07 16:59N 40°39' W 074°03'0 0.3
2017-Oct-07 16:29N 40°40' W 074°03'0 0.2
2017-Oct-07 15:59N 40°40' W 074°03'0 0.1
2017-Oct-07 15:29N 40°40' W 074°03'0 0.0
2017-Oct-07 14:59N 40°40' W 074°03'0 0.0
2017-Oct-07 14:30N 40°40' W 074°03'4 8.1
2017-Oct-07 14:00N 40°39' W 074°08'0 0.2
2017-Oct-07 13:30N 40°38' W 074°08'0 0.0
2017-Oct-07 13:00N 40°38' W 074°08'0 0.0
2017-Oct-07 12:30N 40°38' W 074°08'0 0.6
2017-Oct-07 12:00N 40°39' W 074°07'4 7.4
2017-Oct-07 11:30N 40°40' W 074°03'0 0.1
2017-Oct-07 11:00N 40°40' W 074°03'0 0.3
2017-Oct-07 10:30N 40°40' W 074°03'0 0.1
2017-Oct-07 10:00N 40°40' W 074°03'0 0.2
2017-Oct-07 09:30N 40°39' W 074°03'0 0.0
2017-Oct-07 09:00N 40°39' W 074°03'0 0.0
2017-Oct-07 08:30N 40°39' W 074°03'0 0.0
2017-Oct-07 08:00N 40°39' W 074°03'1 2.4
2017-Oct-07 07:30N 40°38' W 074°03'5 9.3
2017-Oct-07 07:00N 40°34' W 074°02'4 8.5
2017-Oct-07 06:30N 40°31' W 073°58'5 9.2
2017-Oct-07 06:00N 40°29' W 073°53'510.5
2017-Oct-07 05:30N 40°28' W 073°46'610.9
2017-Oct-07 05:00N 40°29' W 073°38'510.8
2017-Oct-07 04:30N 40°30' W 073°32'710.9
2017-Oct-07 03:50N 40°32' W 073°22'411.0
2017-Oct-07 03:29N 40°33' W 073°18'811.0
2017-Oct-07 02:45N 40°35' W 073°07'311.0
2017-Oct-07 02:30N 40°36' W 073°04'711.0
2017-Oct-07 01:51N 40°38' W 072°55'411.3
2017-Oct-07 01:31N 40°39' W 072°50'  
Track history (hours):
 
Tides and Currents Weather Stations Pressure Air Temp Water Temp Dewpoint Dewpoint Depression Visibility Wind Speed Wind Dir Waves Ship Positions

Nicole Leigh Reinauer

Owner: H A REINAUER INC, STATEN ISLAND, NY. More information available from US FCC via Universal Licensing System and Coast Guard Vessel Documentation Center.

Last reported at 2017-Oct-17 01:30 UTC. Time now 2017-Oct-17 01:51 UTC.
Position N 40°40' W 074°04'.

Length 167 m; draft 6.4 m.

Type: Tanker. MMSI: 366774330.

Date/timePositionNaut miles runAvg speedWind from/ knotsBaromVisibWave heightAir tempDewpointWater temp
2017-Oct-17 01:30N 40°40' W 074°04'0 0.0
2017-Oct-17 01:00N 40°40' W 074°04'0 0.0
2017-Oct-17 00:30N 40°40' W 074°04'0 0.0
2017-Oct-17 00:00N 40°40' W 074°04'0 0.0
2017-Oct-16 23:30N 40°40' W 074°04'0 0.1
2017-Oct-16 23:00N 40°40' W 074°04'0 0.5
2017-Oct-16 22:30N 40°40' W 074°04'5 9.0
2017-Oct-16 22:00N 40°39' W 074°10'0 0.6
2017-Oct-16 21:30N 40°39' W 074°10'0 0.0
2017-Oct-16 21:00N 40°39' W 074°10'0 0.0
2017-Oct-16 20:30N 40°39' W 074°10'0 0.0
2017-Oct-16 20:00N 40°39' W 074°10'0 0.0
2017-Oct-16 19:30N 40°39' W 074°10'0 0.0
2017-Oct-16 19:00N 40°39' W 074°10'0 0.0
2017-Oct-16 18:30N 40°39' W 074°10'0 0.0
2017-Oct-16 18:00N 40°39' W 074°10'0 0.0
2017-Oct-16 17:30N 40°39' W 074°10'0 0.0
2017-Oct-16 17:00N 40°39' W 074°10'0 0.0
2017-Oct-16 16:30N 40°39' W 074°10'0 0.6
2017-Oct-16 16:00N 40°39' W 074°10'5 9.7
2017-Oct-16 15:30N 40°39' W 074°03'1 1.3
2017-Oct-16 15:00N 40°40' W 074°04'0 0.0
2017-Oct-16 14:00N 40°40' W 074°04'0 0.3
2017-Oct-16 13:30N 40°40' W 074°04'3 5.5
2017-Oct-16 13:00N 40°41' W 074°01'611.2
2017-Oct-16 12:30N 40°46' W 073°57'5 9.2
2017-Oct-16 12:00N 40°48' W 073°51'5 9.2
2017-Oct-16 11:30N 40°50' W 073°46'4811.4
2017-Oct-16 07:18N 41°06' W 072°46'310.9
2017-Oct-16 07:00N 41°07' W 072°42'510.6
2017-Oct-16 06:30N 41°08' W 072°35'510.3
2017-Oct-16 06:00N 41°09' W 072°28'5 9.7
2017-Oct-16 05:30N 41°11' W 072°22'4 8.7
2017-Oct-16 05:00N 41°12' W 072°17'4 8.6
2017-Oct-16 04:30N 41°14' W 072°11'6 8.6
2017-Oct-16 03:49N 41°14' W 072°04'5610.0
2017-Oct-15 22:11N 41°30' W 070°51'42 8.7
2017-Oct-15 17:20N 42°09' W 070°31'410.6
2017-Oct-15 17:00N 42°12' W 070°34'611.4
2017-Oct-15 16:30N 42°17' W 070°39'611.6
2017-Oct-15 16:00N 42°20' W 070°45'511.0
2017-Oct-15 15:30N 42°23' W 070°51'611.3
2017-Oct-15 15:00N 42°20' W 070°58'4 4.1
2017-Oct-15 14:00N 42°23' W 071°01'1 1.2
2017-Oct-15 13:30N 42°24' W 071°01'0 0.0
2017-Oct-15 04:46N 42°24' W 071°01'0 0.0
2017-Oct-15 04:30N 42°24' W 071°01'0 0.0
2017-Oct-14 18:59N 42°24' W 071°01'2 0.6
2017-Oct-14 16:20N 42°23' W 071°03'2 0.1
2017-Oct-14 01:56N 42°24' W 071°01'1 1.4
2017-Oct-14 01:30N 42°23' W 071°01'2 3.0
2017-Oct-14 00:59N 42°22' W 071°03'4 8.5
2017-Oct-14 00:29N 42°20' W 070°58'510.3
2017-Oct-14 00:00N 42°23' W 070°53'610.7
2017-Oct-13 23:25N 42°20' W 070°45'511.6
2017-Oct-13 23:01N 42°17' W 070°40'611.6
2017-Oct-13 22:30N 42°13' W 070°35'86 4.6
2017-Oct-13 03:44N 41°14' W 071°59'412.1
2017-Oct-13 03:24N 41°14' W 072°04'512.5
2017-Oct-13 03:01N 41°14' W 072°10'612.9
2017-Oct-13 02:31N 41°12' W 072°19'612.9
2017-Oct-13 02:01N 41°10' W 072°27'612.4
2017-Oct-13 01:31N 41°08' W 072°35'612.1
2017-Oct-13 01:01N 41°07' W 072°43'4711.4
2017-Oct-12 20:51N 40°53' W 073°43'411.1
2017-Oct-12 20:30N 40°50' W 073°46'5 9.0
2017-Oct-12 20:00N 40°48' W 073°51'5 9.9
2017-Oct-12 19:30N 40°46' W 073°57'511.0
2017-Oct-12 19:00N 40°41' W 074°01'4 8.0
2017-Oct-12 18:30N 40°39' W 074°05'1 0.2
2017-Oct-12 12:55N 40°39' W 074°07'0 0.0
2017-Oct-12 11:13N 40°39' W 074°07'0 0.1
2017-Oct-12 05:43N 40°39' W 074°06'1 5.2
2017-Oct-12 05:30N 40°39' W 074°04'1 1.5
2017-Oct-12 04:34N 40°38' W 074°03'0 0.2
2017-Oct-12 04:21N 40°38' W 074°03'0 0.1
2017-Oct-12 04:00N 40°38' W 074°03'0 0.5
2017-Oct-12 03:25N 40°39' W 074°03'2 4.6
2017-Oct-12 03:00N 40°39' W 074°05'4 8.7
2017-Oct-12 02:29N 40°39' W 074°11'4 8.2
2017-Oct-12 02:00N 40°35' W 074°13'2 0.1
2017-Oct-10 23:59N 40°33' W 074°14'0 0.0
2017-Oct-10 23:30N 40°33' W 074°14'2 4.6
2017-Oct-10 22:57N 40°35' W 074°12'4 8.6
2017-Oct-10 22:30N 40°39' W 074°10'510.0
2017-Oct-10 22:01N 40°39' W 074°03'713.6
2017-Oct-10 21:31N 40°46' W 074°01'713.3
2017-Oct-10 21:00N 40°52' W 073°56'6 0.2
2017-Oct-09 21:35N 40°57' W 073°54'1 9.7
2017-Oct-09 21:30N 40°57' W 073°54'5 9.7
2017-Oct-09 21:00N 40°52' W 073°56'5 9.7
2017-Oct-09 20:30N 40°48' W 073°59'510.2
2017-Oct-09 20:00N 40°43' W 074°01'5 9.2
2017-Oct-09 19:31N 40°39' W 074°05'5 9.6
2017-Oct-09 19:01N 40°39' W 074°11'3 5.8
2017-Oct-09 18:30N 40°36' W 074°12'3 5.5
2017-Oct-09 18:00N 40°33' W 074°14'1 0.0
2017-Oct-08 03:01N 40°33' W 074°14'0 0.0
2017-Oct-08 03:00N 40°33' W 074°14'1 2.1
2017-Oct-08 02:29N 40°34' W 074°13'4 8.1
2017-Oct-08 02:00N 40°37' W 074°12'4 7.5
2017-Oct-08 01:30N 40°39' W 074°08'4 7.7
2017-Oct-08 01:00N 40°40' W 074°03'0 0.0
2017-Oct-08 00:29N 40°40' W 074°03'0 0.0
2017-Oct-07 23:59N 40°40' W 074°03'0 0.0
2017-Oct-07 23:29N 40°40' W 074°03'0 0.0
2017-Oct-07 22:59N 40°40' W 074°03'0 0.1
2017-Oct-07 22:29N 40°40' W 074°03'0 0.2
2017-Oct-07 21:59N 40°40' W 074°03'0 0.2
2017-Oct-07 21:29N 40°40' W 074°03'0 0.1
2017-Oct-07 20:59N 40°39' W 074°03'0 0.1
2017-Oct-07 20:29N 40°39' W 074°03'0 0.0
2017-Oct-07 19:59N 40°39' W 074°03'0 0.0
2017-Oct-07 19:29N 40°39' W 074°03'0 0.1
2017-Oct-07 18:59N 40°39' W 074°03'0 0.0
2017-Oct-07 18:29N 40°39' W 074°03'0 0.1
2017-Oct-07 17:59N 40°39' W 074°03'0 0.0
2017-Oct-07 17:29N 40°39' W 074°03'0 0.0
2017-Oct-07 16:59N 40°39' W 074°03'0 0.3
2017-Oct-07 16:29N 40°40' W 074°03'0 0.2
2017-Oct-07 15:59N 40°40' W 074°03'0 0.1
2017-Oct-07 15:29N 40°40' W 074°03'0 0.0
2017-Oct-07 14:59N 40°40' W 074°03'0 0.0
2017-Oct-07 14:30N 40°40' W 074°03'4 8.1
2017-Oct-07 14:00N 40°39' W 074°08'0 0.2
2017-Oct-07 13:30N 40°38' W 074°08'0 0.0
2017-Oct-07 13:00N 40°38' W 074°08'0 0.0
2017-Oct-07 12:30N 40°38' W 074°08'0 0.6
2017-Oct-07 12:00N 40°39' W 074°07'4 7.4
2017-Oct-07 11:30N 40°40' W 074°03'0 0.1
2017-Oct-07 11:00N 40°40' W 074°03'0 0.3
2017-Oct-07 10:30N 40°40' W 074°03'0 0.1
2017-Oct-07 10:00N 40°40' W 074°03'0 0.2
2017-Oct-07 09:30N 40°39' W 074°03'0 0.0
2017-Oct-07 09:00N 40°39' W 074°03'0 0.0
2017-Oct-07 08:30N 40°39' W 074°03'0 0.0
2017-Oct-07 08:00N 40°39' W 074°03'1 2.4
2017-Oct-07 07:30N 40°38' W 074°03'5 9.3
2017-Oct-07 07:00N 40°34' W 074°02'4 8.5
2017-Oct-07 06:30N 40°31' W 073°58'5 9.2
2017-Oct-07 06:00N 40°29' W 073°53'510.5
2017-Oct-07 05:30N 40°28' W 073°46'610.9
2017-Oct-07 05:00N 40°29' W 073°38'510.8
2017-Oct-07 04:30N 40°30' W 073°32'710.9
2017-Oct-07 03:50N 40°32' W 073°22'411.0
2017-Oct-07 03:29N 40°33' W 073°18'811.0
2017-Oct-07 02:45N 40°35' W 073°07'311.0
2017-Oct-07 02:30N 40°36' W 073°04'711.0
2017-Oct-07 01:51N 40°38' W 072°55'411.3
2017-Oct-07 01:31N 40°39' W 072°50'  

Dump ship's entire track history